sensor_id;sensor_type;location;lat;lon;timestamp;pressure;altitude;pressure_sealevel;temperature;humidity
24752;BME280;27246;52.376;4.628;2023-02-12T00:04:34;103724.34;;;7.69;94.99
24752;BME280;27246;52.376;4.628;2023-02-12T00:09:36;103727.78;;;7.72;95.32
24752;BME280;27246;52.376;4.628;2023-02-12T00:14:38;103732.28;;;7.73;95.01
24752;BME280;27246;52.376;4.628;2023-02-12T00:19:40;103731.69;;;7.68;95.00
24752;BME280;27246;52.376;4.628;2023-02-12T00:24:42;103732.69;;;7.67;95.45
24752;BME280;27246;52.376;4.628;2023-02-12T00:29:43;103729.63;;;7.72;95.40
24752;BME280;27246;52.376;4.628;2023-02-12T00:34:47;103734.03;;;7.74;94.84
24752;BME280;27246;52.376;4.628;2023-02-12T00:39:49;103720.25;;;7.76;94.80
24752;BME280;27246;52.376;4.628;2023-02-12T00:44:51;103726.81;;;7.73;94.79
24752;BME280;27246;52.376;4.628;2023-02-12T00:49:53;103723.44;;;7.68;95.44
24752;BME280;27246;52.376;4.628;2023-02-12T00:54:54;103714.06;;;7.72;95.37
24752;BME280;27246;52.376;4.628;2023-02-12T00:59:56;103722.41;;;7.71;94.76
24752;BME280;27246;52.376;4.628;2023-02-12T01:04:57;103716.50;;;7.63;95.37
24752;BME280;27246;52.376;4.628;2023-02-12T01:09:59;103720.63;;;7.70;95.31
24752;BME280;27246;52.376;4.628;2023-02-12T01:15:03;103714.44;;;7.66;94.87
24752;BME280;27246;52.376;4.628;2023-02-12T01:20:06;103717.56;;;7.60;95.94
24752;BME280;27246;52.376;4.628;2023-02-12T01:25:09;103722.47;;;7.55;96.25
24752;BME280;27246;52.376;4.628;2023-02-12T01:30:12;103721.38;;;7.57;95.74
24752;BME280;27246;52.376;4.628;2023-02-12T01:35:14;103722.25;;;7.58;95.90
24752;BME280;27246;52.376;4.628;2023-02-12T01:40:16;103723.75;;;7.64;95.79
24752;BME280;27246;52.376;4.628;2023-02-12T01:50:23;103707.56;;;7.59;95.72
24752;BME280;27246;52.376;4.628;2023-02-12T01:55:25;103715.81;;;7.59;95.80
24752;BME280;27246;52.376;4.628;2023-02-12T02:00:28;103717.75;;;7.57;95.61
24752;BME280;27246;52.376;4.628;2023-02-12T02:05:55;103708.53;;;7.58;95.49
24752;BME280;27246;52.376;4.628;2023-02-12T02:10:59;103712.44;;;7.54;95.28
24752;BME280;27246;52.376;4.628;2023-02-12T02:16:12;103716.97;;;7.55;95.31
24752;BME280;27246;52.376;4.628;2023-02-12T02:32:02;103710.22;;;7.60;95.57
24752;BME280;27246;52.376;4.628;2023-02-12T02:37:48;103721.59;;;7.54;95.60
24752;BME280;27246;52.376;4.628;2023-02-12T02:43:05;103702.25;;;7.56;95.29
24752;BME280;27246;52.376;4.628;2023-02-12T02:48:13;103706.56;;;7.46;94.80
24752;BME280;27246;52.376;4.628;2023-02-12T02:53:21;103707.72;;;7.41;95.61
24752;BME280;27246;52.376;4.628;2023-02-12T02:58:38;103705.47;;;7.48;95.50
24752;BME280;27246;52.376;4.628;2023-02-12T03:03:53;103704.59;;;7.48;95.24
24752;BME280;27246;52.376;4.628;2023-02-12T03:09:02;103703.81;;;7.46;95.48
24752;BME280;27246;52.376;4.628;2023-02-12T03:19:15;103698.53;;;7.43;95.10
24752;BME280;27246;52.376;4.628;2023-02-12T03:24:28;103683.53;;;7.48;94.95
24752;BME280;27246;52.376;4.628;2023-02-12T03:29:31;103690.66;;;7.36;94.47
24752;BME280;27246;52.376;4.628;2023-02-12T03:34:52;103687.03;;;7.20;96.17
24752;BME280;27246;52.376;4.628;2023-02-12T03:40:18;103693.34;;;7.22;95.50
24752;BME280;27246;52.376;4.628;2023-02-12T03:51:23;103690.03;;;7.31;95.55
24752;BME280;27246;52.376;4.628;2023-02-12T03:56:36;103701.00;;;7.31;94.86
24752;BME280;27246;52.376;4.628;2023-02-12T04:01:39;103704.31;;;7.22;94.45
24752;BME280;27246;52.376;4.628;2023-02-12T04:06:42;103708.56;;;7.12;95.55
24752;BME280;27246;52.376;4.628;2023-02-12T04:22:35;103728.50;;;7.30;93.16
24752;BME280;27246;52.376;4.628;2023-02-12T04:27:53;103726.03;;;7.25;92.57
24752;BME280;27246;52.376;4.628;2023-02-12T04:33:08;103728.63;;;7.28;92.43
24752;BME280;27246;52.376;4.628;2023-02-12T04:38:21;103737.81;;;7.27;92.23
24752;BME280;27246;52.376;4.628;2023-02-12T04:43:33;103741.63;;;7.25;91.19
24752;BME280;27246;52.376;4.628;2023-02-12T04:48:49;103751.78;;;7.23;91.12
24752;BME280;27246;52.376;4.628;2023-02-12T04:53:52;103750.91;;;7.22;89.93
24752;BME280;27246;52.376;4.628;2023-02-12T04:58:54;103750.38;;;7.15;88.92
24752;BME280;27246;52.376;4.628;2023-02-12T05:03:58;103746.22;;;7.24;88.27
24752;BME280;27246;52.376;4.628;2023-02-12T05:08:59;103751.50;;;7.27;87.40
24752;BME280;27246;52.376;4.628;2023-02-12T05:14:01;103750.28;;;7.33;87.53
24752;BME280;27246;52.376;4.628;2023-02-12T05:19:03;103745.28;;;7.39;86.81
24752;BME280;27246;52.376;4.628;2023-02-12T05:24:05;103738.13;;;7.37;86.75
24752;BME280;27246;52.376;4.628;2023-02-12T05:29:07;103745.28;;;7.39;86.36
24752;BME280;27246;52.376;4.628;2023-02-12T05:34:10;103747.25;;;7.37;85.49
24752;BME280;27246;52.376;4.628;2023-02-12T05:39:12;103750.84;;;7.38;84.98
24752;BME280;27246;52.376;4.628;2023-02-12T05:44:14;103750.63;;;7.43;85.04
24752;BME280;27246;52.376;4.628;2023-02-12T05:49:16;103749.66;;;7.44;84.56
24752;BME280;27246;52.376;4.628;2023-02-12T05:54:17;103750.16;;;7.50;84.41
24752;BME280;27246;52.376;4.628;2023-02-12T05:59:21;103753.97;;;7.48;83.55
24752;BME280;27246;52.376;4.628;2023-02-12T06:04:25;103754.50;;;7.54;83.36
24752;BME280;27246;52.376;4.628;2023-02-12T06:09:27;103752.00;;;7.50;82.68
24752;BME280;27246;52.376;4.628;2023-02-12T06:14:29;103750.72;;;7.41;83.07
24752;BME280;27246;52.376;4.628;2023-02-12T06:19:32;103758.88;;;7.43;83.08
24752;BME280;27246;52.376;4.628;2023-02-12T06:24:35;103747.53;;;7.49;82.67
24752;BME280;27246;52.376;4.628;2023-02-12T06:29:37;103748.69;;;7.45;82.91
24752;BME280;27246;52.376;4.628;2023-02-12T06:34:39;103753.97;;;7.48;83.16
24752;BME280;27246;52.376;4.628;2023-02-12T06:39:41;103755.63;;;7.50;82.86
24752;BME280;27246;52.376;4.628;2023-02-12T06:44:43;103760.69;;;7.42;82.45
24752;BME280;27246;52.376;4.628;2023-02-12T06:49:46;103756.91;;;7.45;82.59
24752;BME280;27246;52.376;4.628;2023-02-12T06:54:47;103760.94;;;7.37;82.74
24752;BME280;27246;52.376;4.628;2023-02-12T06:59:49;103768.69;;;7.47;82.62
24752;BME280;27246;52.376;4.628;2023-02-12T07:04:51;103766.59;;;7.50;82.55
24752;BME280;27246;52.376;4.628;2023-02-12T07:09:53;103768.31;;;7.53;82.16
24752;BME280;27246;52.376;4.628;2023-02-12T07:14:54;103773.25;;;7.46;82.10
24752;BME280;27246;52.376;4.628;2023-02-12T07:19:56;103774.16;;;7.47;81.64
24752;BME280;27246;52.376;4.628;2023-02-12T07:24:58;103789.53;;;7.49;81.90
24752;BME280;27246;52.376;4.628;2023-02-12T07:30:01;103789.03;;;7.43;82.06
24752;BME280;27246;52.376;4.628;2023-02-12T07:35:03;103798.66;;;7.50;81.72
24752;BME280;27246;52.376;4.628;2023-02-12T07:40:06;103801.22;;;7.53;81.78
24752;BME280;27246;52.376;4.628;2023-02-12T07:45:08;103802.09;;;7.37;81.42
24752;BME280;27246;52.376;4.628;2023-02-12T07:50:10;103821.06;;;7.26;82.31
24752;BME280;27246;52.376;4.628;2023-02-12T07:55:12;103820.94;;;7.28;82.08
24752;BME280;27246;52.376;4.628;2023-02-12T08:00:14;103808.44;;;7.38;81.91
24752;BME280;27246;52.376;4.628;2023-02-12T08:05:16;103816.09;;;7.49;81.16
24752;BME280;27246;52.376;4.628;2023-02-12T08:10:18;103822.63;;;7.46;81.39
24752;BME280;27246;52.376;4.628;2023-02-12T08:15:22;103829.03;;;7.47;80.90
24752;BME280;27246;52.376;4.628;2023-02-12T08:20:24;103833.94;;;7.56;80.28
24752;BME280;27246;52.376;4.628;2023-02-12T08:25:26;103833.59;;;7.46;80.23
24752;BME280;27246;52.376;4.628;2023-02-12T08:30:29;103837.31;;;7.45;79.53
24752;BME280;27246;52.376;4.628;2023-02-12T08:35:30;103836.34;;;7.46;79.72
24752;BME280;27246;52.376;4.628;2023-02-12T08:40:32;103840.13;;;7.59;79.30
24752;BME280;27246;52.376;4.628;2023-02-12T08:45:34;103846.50;;;7.60;79.65
24752;BME280;27246;52.376;4.628;2023-02-12T08:50:35;103845.91;;;7.55;79.11
24752;BME280;27246;52.376;4.628;2023-02-12T08:55:37;103850.41;;;7.56;79.72
24752;BME280;27246;52.376;4.628;2023-02-12T09:00:39;103859.78;;;7.52;78.99
24752;BME280;27246;52.376;4.628;2023-02-12T09:05:41;103855.63;;;7.60;78.90
24752;BME280;27246;52.376;4.628;2023-02-12T09:10:46;103869.22;;;7.62;79.03
24752;BME280;27246;52.376;4.628;2023-02-12T09:15:47;103868.28;;;7.63;78.16
24752;BME280;27246;52.376;4.628;2023-02-12T09:20:49;103859.06;;;7.64;78.71
24752;BME280;27246;52.376;4.628;2023-02-12T09:25:51;103867.13;;;7.67;77.48
24752;BME280;27246;52.376;4.628;2023-02-12T09:30:55;103865.97;;;7.71;76.97
24752;BME280;27246;52.376;4.628;2023-02-12T09:36:01;103861.19;;;7.75;77.29
24752;BME280;27246;52.376;4.628;2023-02-12T09:46:31;103865.38;;;7.80;76.69
24752;BME280;27246;52.376;4.628;2023-02-12T09:51:34;103867.16;;;7.81;75.64
24752;BME280;27246;52.376;4.628;2023-02-12T09:56:37;103864.75;;;7.91;77.03
24752;BME280;27246;52.376;4.628;2023-02-12T10:01:42;103866.81;;;7.88;74.98
24752;BME280;27246;52.376;4.628;2023-02-12T10:06:51;103875.03;;;7.88;74.87
24752;BME280;27246;52.376;4.628;2023-02-12T10:12:14;103858.19;;;7.94;75.18
24752;BME280;27246;52.376;4.628;2023-02-12T10:17:36;103875.66;;;7.93;74.64
24752;BME280;27246;52.376;4.628;2023-02-12T10:23:38;103872.72;;;7.96;73.54
24752;BME280;27246;52.376;4.628;2023-02-12T10:28:26;103872.91;;;7.93;72.83
24752;BME280;27246;52.376;4.628;2023-02-12T10:38:39;103866.06;;;8.00;72.96
24752;BME280;27246;52.376;4.628;2023-02-12T10:43:43;103863.22;;;8.01;72.81
24752;BME280;27246;52.376;4.628;2023-02-12T10:48:47;103872.94;;;8.07;72.95
24752;BME280;27246;52.376;4.628;2023-02-12T10:53:53;103860.88;;;8.10;71.53
24752;BME280;27246;52.376;4.628;2023-02-12T10:58:59;103862.84;;;8.08;71.21
24752;BME280;27246;52.376;4.628;2023-02-12T11:04:26;103866.50;;;7.92;70.37
24752;BME280;27246;52.376;4.628;2023-02-12T11:09:52;103862.84;;;8.08;71.16
24752;BME280;27246;52.376;4.628;2023-02-12T11:14:56;103866.25;;;7.97;70.34
24752;BME280;27246;52.376;4.628;2023-02-12T11:25:14;103854.31;;;8.12;70.64
24752;BME280;27246;52.376;4.628;2023-02-12T11:30:19;103856.28;;;8.10;69.47
24752;BME280;27246;52.376;4.628;2023-02-12T11:35:24;103852.44;;;8.13;68.62
24752;BME280;27246;52.376;4.628;2023-02-12T11:40:30;103851.00;;;8.07;69.07
24752;BME280;27246;52.376;4.628;2023-02-12T11:45:42;103850.22;;;8.19;68.74
24752;BME280;27246;52.376;4.628;2023-02-12T11:50:48;103846.47;;;8.20;68.08
24752;BME280;27246;52.376;4.628;2023-02-12T11:55:57;103846.88;;;8.14;68.61
24752;BME280;27246;52.376;4.628;2023-02-12T12:06:30;103843.66;;;8.22;68.03
24752;BME280;27246;52.376;4.628;2023-02-12T12:11:56;103838.16;;;8.22;67.88
24752;BME280;27246;52.376;4.628;2023-02-12T12:17:13;103840.22;;;8.18;68.29
24752;BME280;27246;52.376;4.628;2023-02-12T12:22:49;103837.66;;;8.15;66.59
24752;BME280;27246;52.376;4.628;2023-02-12T12:39:00;103824.13;;;8.27;66.66
24752;BME280;27246;52.376;4.628;2023-02-12T12:44:15;103828.66;;;8.28;65.94
24752;BME280;27246;52.376;4.628;2023-02-12T12:55:03;103815.91;;;8.27;66.62
24752;BME280;27246;52.376;4.628;2023-02-12T13:05:56;103807.66;;;8.27;65.79
24752;BME280;27246;52.376;4.628;2023-02-12T13:11:28;103806.09;;;8.23;65.21
24752;BME280;27246;52.376;4.628;2023-02-12T13:16:45;103797.66;;;8.26;65.28
24752;BME280;27246;52.376;4.628;2023-02-12T13:27:35;103794.91;;;8.26;65.51
24752;BME280;27246;52.376;4.628;2023-02-12T13:37:52;103786.28;;;8.17;65.40
24752;BME280;27246;52.376;4.628;2023-02-12T13:43:19;103786.19;;;8.19;65.68
24752;BME280;27246;52.376;4.628;2023-02-12T14:04:53;103761.34;;;8.35;65.96
24752;BME280;27246;52.376;4.628;2023-02-12T14:20:28;103763.84;;;8.25;66.56
24752;BME280;27246;52.376;4.628;2023-02-12T14:25:43;103751.69;;;8.29;67.63
24752;BME280;27246;52.376;4.628;2023-02-12T14:41:37;103752.25;;;8.20;68.04
24752;BME280;27246;52.376;4.628;2023-02-12T14:46:59;103750.19;;;8.24;68.94
24752;BME280;27246;52.376;4.628;2023-02-12T15:02:31;103736.06;;;8.15;69.11
24752;BME280;27246;52.376;4.628;2023-02-12T15:07:40;103735.38;;;8.26;68.95
24752;BME280;27246;52.376;4.628;2023-02-12T15:28:59;103725.38;;;8.25;70.21
24752;BME280;27246;52.376;4.628;2023-02-12T15:34:02;103735.59;;;8.23;69.48
24752;BME280;27246;52.376;4.628;2023-02-12T15:39:07;103734.41;;;8.27;68.00
24752;BME280;27246;52.376;4.628;2023-02-12T15:44:29;103732.84;;;8.23;68.65
24752;BME280;27246;52.376;4.628;2023-02-12T15:49:36;103733.41;;;8.28;69.07
24752;BME280;27246;52.376;4.628;2023-02-12T15:54:44;103734.81;;;8.21;69.04
24752;BME280;27246;52.376;4.628;2023-02-12T15:59:51;103722.53;;;8.12;69.30
24752;BME280;27246;52.376;4.628;2023-02-12T16:04:57;103733.63;;;8.25;68.42
24752;BME280;27246;52.376;4.628;2023-02-12T16:09:59;103730.38;;;8.18;68.40
24752;BME280;27246;52.376;4.628;2023-02-12T16:15:01;103734.59;;;8.10;69.19
24752;BME280;27246;52.376;4.628;2023-02-12T16:25:27;103726.94;;;8.15;69.53
24752;BME280;27246;52.376;4.628;2023-02-12T16:30:33;103728.72;;;8.16;69.29
24752;BME280;27246;52.376;4.628;2023-02-12T16:35:35;103728.09;;;8.11;69.54
24752;BME280;27246;52.376;4.628;2023-02-12T16:40:37;103723.53;;;7.97;69.63
24752;BME280;27246;52.376;4.628;2023-02-12T16:45:40;103716.84;;;8.01;70.21
24752;BME280;27246;52.376;4.628;2023-02-12T16:50:49;103724.50;;;8.10;69.96
24752;BME280;27246;52.376;4.628;2023-02-12T16:55:51;103722.03;;;8.06;69.54
24752;BME280;27246;52.376;4.628;2023-02-12T17:00:57;103738.31;;;8.09;69.22
24752;BME280;27246;52.376;4.628;2023-02-12T17:06:00;103734.69;;;8.08;69.06
24752;BME280;27246;52.376;4.628;2023-02-12T17:11:02;103724.97;;;8.02;69.48
24752;BME280;27246;52.376;4.628;2023-02-12T17:16:04;103741.16;;;7.93;69.50
24752;BME280;27246;52.376;4.628;2023-02-12T17:21:22;103738.28;;;7.94;70.15
24752;BME280;27246;52.376;4.628;2023-02-12T17:26:25;103739.00;;;7.98;69.47
24752;BME280;27246;52.376;4.628;2023-02-12T17:31:27;103746.03;;;7.88;69.64
24752;BME280;27246;52.376;4.628;2023-02-12T17:36:30;103748.31;;;7.95;68.77
24752;BME280;27246;52.376;4.628;2023-02-12T17:41:32;103755.47;;;7.98;68.57
24752;BME280;27246;52.376;4.628;2023-02-12T17:46:34;103761.34;;;8.06;68.56
24752;BME280;27246;52.376;4.628;2023-02-12T17:51:36;103764.47;;;8.00;68.78
24752;BME280;27246;52.376;4.628;2023-02-12T17:56:37;103777.25;;;8.01;68.22
24752;BME280;27246;52.376;4.628;2023-02-12T18:01:39;103774.50;;;8.01;68.57
24752;BME280;27246;52.376;4.628;2023-02-12T18:06:41;103776.75;;;8.09;68.69
24752;BME280;27246;52.376;4.628;2023-02-12T18:11:43;103778.03;;;8.03;68.64
24752;BME280;27246;52.376;4.628;2023-02-12T18:16:45;103773.47;;;7.88;69.39
24752;BME280;27246;52.376;4.628;2023-02-12T18:21:47;103770.81;;;7.86;70.17
24752;BME280;27246;52.376;4.628;2023-02-12T18:26:48;103768.31;;;7.97;70.21
24752;BME280;27246;52.376;4.628;2023-02-12T18:31:53;103766.66;;;7.95;69.96
24752;BME280;27246;52.376;4.628;2023-02-12T18:36:55;103775.06;;;7.92;70.47
24752;BME280;27246;52.376;4.628;2023-02-12T18:41:56;103769.41;;;7.95;69.89
24752;BME280;27246;52.376;4.628;2023-02-12T18:46:58;103775.06;;;7.92;69.55
24752;BME280;27246;52.376;4.628;2023-02-12T18:52:02;103786.03;;;7.92;69.97
24752;BME280;27246;52.376;4.628;2023-02-12T18:57:04;103769.91;;;7.71;70.75
24752;BME280;27246;52.376;4.628;2023-02-12T19:02:06;103768.94;;;7.72;70.71
24752;BME280;27246;52.376;4.628;2023-02-12T19:07:08;103775.59;;;7.68;70.92
24752;BME280;27246;52.376;4.628;2023-02-12T19:12:10;103770.22;;;7.67;71.51
24752;BME280;27246;52.376;4.628;2023-02-12T19:17:11;103770.00;;;7.70;72.17
24752;BME280;27246;52.376;4.628;2023-02-12T19:22:13;103766.88;;;7.76;71.77
24752;BME280;27246;52.376;4.628;2023-02-12T19:27:15;103761.72;;;7.86;71.27
24752;BME280;27246;52.376;4.628;2023-02-12T19:32:18;103759.75;;;7.88;70.76
24752;BME280;27246;52.376;4.628;2023-02-12T19:37:20;103776.38;;;7.70;71.80
24752;BME280;27246;52.376;4.628;2023-02-12T19:42:22;103760.03;;;7.69;71.99
24752;BME280;27246;52.376;4.628;2023-02-12T19:47:26;103761.06;;;7.66;72.24
24752;BME280;27246;52.376;4.628;2023-02-12T19:52:28;103756.59;;;7.65;72.20
24752;BME280;27246;52.376;4.628;2023-02-12T19:57:29;103759.81;;;7.72;72.51
24752;BME280;27246;52.376;4.628;2023-02-12T20:02:31;103763.75;;;7.82;71.77
24752;BME280;27246;52.376;4.628;2023-02-12T20:07:33;103761.50;;;7.74;72.13
24752;BME280;27246;52.376;4.628;2023-02-12T20:12:35;103758.28;;;7.52;72.48
24752;BME280;27246;52.376;4.628;2023-02-12T20:17:40;103762.19;;;7.48;73.05
24752;BME280;27246;52.376;4.628;2023-02-12T20:22:42;103754.91;;;7.63;73.04
24752;BME280;27246;52.376;4.628;2023-02-12T20:27:43;103762.41;;;7.75;72.53
24752;BME280;27246;52.376;4.628;2023-02-12T20:32:45;103758.16;;;7.69;71.65
24752;BME280;27246;52.376;4.628;2023-02-12T20:37:47;103760.00;;;7.54;72.02
24752;BME280;27246;52.376;4.628;2023-02-12T20:42:48;103767.06;;;7.58;72.54
24752;BME280;27246;52.376;4.628;2023-02-12T20:47:50;103770.22;;;7.67;71.29
24752;BME280;27246;52.376;4.628;2023-02-12T20:52:52;103763.97;;;7.49;71.59
24752;BME280;27246;52.376;4.628;2023-02-12T20:57:54;103756.72;;;7.48;72.05
24752;BME280;27246;52.376;4.628;2023-02-12T21:02:56;103761.66;;;7.57;71.43
24752;BME280;27246;52.376;4.628;2023-02-12T21:07:58;103762.13;;;7.49;71.66
24752;BME280;27246;52.376;4.628;2023-02-12T21:13:00;103758.13;;;7.55;71.32
24752;BME280;27246;52.376;4.628;2023-02-12T21:18:02;103747.41;;;7.50;71.24
24752;BME280;27246;52.376;4.628;2023-02-12T21:23:03;103757.25;;;7.54;70.77
24752;BME280;27246;52.376;4.628;2023-02-12T21:28:05;103755.63;;;7.50;70.84
24752;BME280;27246;52.376;4.628;2023-02-12T21:33:07;103751.94;;;7.51;70.65
24752;BME280;27246;52.376;4.628;2023-02-12T21:38:08;103760.28;;;7.64;70.39
24752;BME280;27246;52.376;4.628;2023-02-12T21:43:11;103764.41;;;7.57;70.55
24752;BME280;27246;52.376;4.628;2023-02-12T21:48:12;103757.50;;;7.50;70.37
24752;BME280;27246;52.376;4.628;2023-02-12T21:53:14;103758.72;;;7.60;69.94
24752;BME280;27246;52.376;4.628;2023-02-12T21:58:17;103756.16;;;7.57;69.87
24752;BME280;27246;52.376;4.628;2023-02-12T22:03:19;103745.19;;;7.57;69.95
24752;BME280;27246;52.376;4.628;2023-02-12T22:08:22;103744.81;;;7.63;70.10
24752;BME280;27246;52.376;4.628;2023-02-12T22:13:24;103741.69;;;7.69;69.40
24752;BME280;27246;52.376;4.628;2023-02-12T22:18:26;103736.63;;;7.77;70.27
24752;BME280;27246;52.376;4.628;2023-02-12T22:23:28;103736.63;;;7.77;71.43
24752;BME280;27246;52.376;4.628;2023-02-12T22:28:30;103728.38;;;7.77;69.95
24752;BME280;27246;52.376;4.628;2023-02-12T22:33:31;103730.25;;;7.77;69.56
24752;BME280;27246;52.376;4.628;2023-02-12T22:38:34;103724.25;;;7.85;69.82
24752;BME280;27246;52.376;4.628;2023-02-12T22:43:40;103733.50;;;7.84;70.05
24752;BME280;27246;52.376;4.628;2023-02-12T22:48:43;103724.66;;;7.78;69.56
24752;BME280;27246;52.376;4.628;2023-02-12T22:53:45;103725.56;;;7.79;69.23
24752;BME280;27246;52.376;4.628;2023-02-12T22:58:47;103712.78;;;7.78;69.61
24752;BME280;27246;52.376;4.628;2023-02-12T23:03:49;103723.84;;;7.76;69.73
24752;BME280;27246;52.376;4.628;2023-02-12T23:08:54;103716.63;;;7.75;69.36
24752;BME280;27246;52.376;4.628;2023-02-12T23:13:57;103712.00;;;7.76;69.83
24752;BME280;27246;52.376;4.628;2023-02-12T23:19:00;103710.94;;;7.78;69.88
24752;BME280;27246;52.376;4.628;2023-02-12T23:24:02;103697.19;;;7.78;70.79
24752;BME280;27246;52.376;4.628;2023-02-12T23:29:03;103708.50;;;7.88;70.28
24752;BME280;27246;52.376;4.628;2023-02-12T23:34:06;103705.88;;;7.87;70.32
24752;BME280;27246;52.376;4.628;2023-02-12T23:39:11;103701.25;;;7.73;70.10
24752;BME280;27246;52.376;4.628;2023-02-12T23:44:13;103699.16;;;7.76;70.41
24752;BME280;27246;52.376;4.628;2023-02-12T23:49:15;103691.94;;;7.75;70.35
24752;BME280;27246;52.376;4.628;2023-02-12T23:54:17;103685.34;;;7.78;70.57
24752;BME280;27246;52.376;4.628;2023-02-12T23:59:19;103687.78;;;7.68;70.94
